createdAt,value
2024-02-22T00:01:01.614Z,45.37
2024-02-22T00:03:29.251Z,44.30
2024-02-22T00:05:57.246Z,45.50
2024-02-22T00:08:24.927Z,47.13
2024-02-22T00:10:53.909Z,49.90
2024-02-22T00:13:22.008Z,49.27
2024-02-22T00:15:49.987Z,50.60
2024-02-22T00:18:19.238Z,51.87
2024-02-22T00:20:47.183Z,47.17
2024-02-22T00:23:14.859Z,50.63
2024-02-22T00:25:42.556Z,49.40
2024-02-22T00:28:10.582Z,50.00
2024-02-22T00:30:38.206Z,48.20
2024-02-22T00:33:06.691Z,49.67
2024-02-22T00:35:35.718Z,53.60
2024-02-22T00:38:03.983Z,51.37
2024-02-22T00:40:33.253Z,48.70
2024-02-22T00:43:02.016Z,46.80
2024-02-22T00:45:30.784Z,51.10
2024-02-22T00:47:59.991Z,53.00
2024-02-22T00:50:28.690Z,55.47
2024-02-22T00:52:58.076Z,50.50
2024-02-22T00:55:25.718Z,53.43
2024-02-22T00:57:55.246Z,55.00
2024-02-22T01:00:23.151Z,55.17
2024-02-22T01:02:50.805Z,61.40
2024-02-22T01:05:19.150Z,56.13
2024-02-22T01:07:46.936Z,61.60
2024-02-22T01:10:16.252Z,56.97
2024-02-22T01:12:43.979Z,60.37
2024-02-22T01:15:11.869Z,53.33
2024-02-22T01:17:39.578Z,55.97
2024-02-22T01:20:08.363Z,58.00
2024-02-22T01:22:36.010Z,61.00
2024-02-22T01:25:03.976Z,58.90
2024-02-22T01:27:33.073Z,57.90
2024-02-22T01:30:00.930Z,59.10
2024-02-22T01:32:28.528Z,60.40
2024-02-22T01:34:56.914Z,68.00
2024-02-22T01:37:24.500Z,59.93
2024-02-22T01:39:52.597Z,58.90
2024-02-22T01:42:20.216Z,63.67
2024-02-22T01:44:49.902Z,59.27
2024-02-22T01:47:18.410Z,60.60
2024-02-22T01:49:46.425Z,61.87
2024-02-22T01:52:14.107Z,60.33
2024-02-22T01:54:42.487Z,62.20
2024-02-22T01:57:10.360Z,59.80
2024-02-22T01:59:38.045Z,62.50
2024-02-22T02:02:07.929Z,57.80
2024-02-22T02:04:36.420Z,62.47
2024-02-22T02:07:04.312Z,60.97
2024-02-22T02:09:32.614Z,64.47
2024-02-22T02:12:00.541Z,61.00
2024-02-22T02:14:28.666Z,59.13
2024-02-22T02:16:56.317Z,64.57
2024-02-22T02:19:27.550Z,60.17
2024-02-22T02:22:09.254Z,59.97
2024-02-22T02:24:42.242Z,60.90
2024-02-22T02:27:12.263Z,66.20
2024-02-22T02:29:40.422Z,64.90
2024-02-22T02:32:08.723Z,64.53
2024-02-22T02:34:36.786Z,61.00
2024-02-22T02:37:04.558Z,61.33
2024-02-22T02:39:32.196Z,63.77
2024-02-22T02:42:00.534Z,58.87
2024-02-22T02:44:29.492Z,62.63
2024-02-22T02:46:57.150Z,63.43
2024-02-22T02:49:25.468Z,59.40
2024-02-22T02:51:53.045Z,56.60
2024-02-22T02:54:20.721Z,56.30
2024-02-22T02:56:49.139Z,59.07
2024-02-22T02:59:18.088Z,54.97
2024-02-22T03:01:51.237Z,57.43
2024-02-22T03:04:19.535Z,55.47
2024-02-22T03:06:47.557Z,61.67
2024-02-22T03:09:16.112Z,58.00
2024-02-22T03:11:44.219Z,59.87
2024-02-22T03:14:12.106Z,61.23
2024-02-22T03:16:40.485Z,60.13
2024-02-22T03:19:10.469Z,61.13
2024-02-22T03:21:39.372Z,76.83
2024-02-22T03:24:09.000Z,59.07
2024-02-22T03:26:37.440Z,62.13
2024-02-22T03:29:05.154Z,63.27
2024-02-22T03:31:33.186Z,59.90
2024-02-22T03:34:01.595Z,63.17
2024-02-22T03:36:30.601Z,59.63
2024-02-22T03:38:58.378Z,59.97
2024-02-22T03:41:26.211Z,62.37
2024-02-22T03:43:54.181Z,62.30
2024-02-22T03:46:22.303Z,62.72
2024-02-22T03:48:50.041Z,58.93
2024-02-22T03:51:17.997Z,63.47
2024-02-22T03:53:47.507Z,72.70
2024-02-22T03:56:15.167Z,64.87
2024-02-22T03:58:42.834Z,62.20
2024-02-22T04:01:10.980Z,64.27
2024-02-22T04:03:38.642Z,61.37
2024-02-22T04:06:07.451Z,63.07
2024-02-22T04:08:35.681Z,61.93
2024-02-22T04:11:04.902Z,65.40
2024-02-22T04:13:32.579Z,70.23
2024-02-22T04:16:00.721Z,65.90
2024-02-22T04:18:28.478Z,64.23
2024-02-22T04:20:56.123Z,59.37
2024-02-22T04:23:24.044Z,61.97
2024-02-22T04:25:51.703Z,60.63
2024-02-22T04:28:20.900Z,68.30
2024-02-22T04:30:49.148Z,61.17
2024-02-22T04:33:17.244Z,63.77
2024-02-22T04:35:49.003Z,64.53
2024-02-22T04:38:19.512Z,68.63
2024-02-22T04:40:47.242Z,58.60
2024-02-22T04:43:15.027Z,68.07
2024-02-22T04:45:44.129Z,65.10
2024-02-22T04:48:11.894Z,72.43
2024-02-22T04:50:40.129Z,63.17
2024-02-22T04:53:07.951Z,71.33
2024-02-22T04:55:35.786Z,70.40
2024-02-22T04:58:05.837Z,72.57
2024-02-22T05:00:35.727Z,73.07
2024-02-22T05:03:05.259Z,70.33
2024-02-22T05:05:33.103Z,69.73
2024-02-22T05:08:01.020Z,74.43
2024-02-22T05:10:29.377Z,74.93
2024-02-22T05:12:56.960Z,70.67
2024-02-22T05:15:24.844Z,77.23
2024-02-22T05:17:52.520Z,74.40
2024-02-22T05:20:22.151Z,73.93
2024-02-22T05:22:50.924Z,71.70
2024-02-22T05:25:19.188Z,73.30
2024-02-22T05:27:47.297Z,73.70
2024-02-22T05:30:15.805Z,75.80
2024-02-22T05:32:43.449Z,67.23
2024-02-22T05:35:11.487Z,67.90
2024-02-22T05:37:40.447Z,75.90
2024-02-22T05:40:10.559Z,73.63
2024-02-22T05:42:38.371Z,69.33
2024-02-22T05:45:07.451Z,69.23
2024-02-22T05:47:35.467Z,73.80
2024-02-22T05:50:03.721Z,77.43
2024-02-22T05:52:31.645Z,68.47
2024-02-22T05:55:00.721Z,71.30
2024-02-22T05:57:29.277Z,71.40
2024-02-22T05:59:57.271Z,76.73
2024-02-22T06:02:25.024Z,80.23
2024-02-22T06:04:53.046Z,69.67
2024-02-22T06:07:20.751Z,74.50
2024-02-22T06:09:48.671Z,75.80
2024-02-22T06:12:17.867Z,70.57
2024-02-22T06:14:45.504Z,70.97
2024-02-22T06:17:13.562Z,79.35
2024-02-22T06:19:41.309Z,79.38
2024-02-22T06:22:10.077Z,75.63
2024-02-22T06:24:37.883Z,74.80
2024-02-22T06:27:06.076Z,75.87
2024-02-22T06:29:35.070Z,75.60
2024-02-22T06:32:02.705Z,78.15
2024-02-22T06:34:30.482Z,76.77
2024-02-22T06:36:58.339Z,82.50
2024-02-22T06:39:28.881Z,78.60
2024-02-22T06:41:56.998Z,83.60
2024-02-22T06:44:24.696Z,78.93
2024-02-22T06:46:54.672Z,79.17
2024-02-22T06:49:22.383Z,77.53
2024-02-22T06:51:50.165Z,79.07
2024-02-22T06:54:18.214Z,73.25
2024-02-22T06:56:47.990Z,77.93
2024-02-22T06:59:18.286Z,82.67
2024-02-22T07:01:46.187Z,82.55
2024-02-22T07:04:15.228Z,81.47
2024-02-22T07:06:42.966Z,80.05
2024-02-22T07:09:10.687Z,86.63
2024-02-22T07:11:38.818Z,84.45
2024-02-22T07:14:06.851Z,75.17
2024-02-22T07:16:35.008Z,84.90
2024-02-22T07:19:03.171Z,89.80
2024-02-22T07:21:35.520Z,81.72
2024-02-22T07:24:05.202Z,82.70
2024-02-22T07:26:33.596Z,78.00
2024-02-22T07:29:02.039Z,73.73
2024-02-22T07:31:29.865Z,86.20
2024-02-22T07:33:57.739Z,84.07
2024-02-22T07:36:26.089Z,84.43
2024-02-22T07:38:55.189Z,75.32
2024-02-22T07:41:24.237Z,77.38
2024-02-22T07:43:52.131Z,73.82
2024-02-22T07:46:19.745Z,86.97
2024-02-22T07:48:47.476Z,83.53
2024-02-22T07:51:15.469Z,87.10
2024-02-22T07:53:44.216Z,80.63
2024-02-22T07:56:14.144Z,85.63
2024-02-22T07:58:49.551Z,82.10
2024-02-22T08:01:17.929Z,77.75
2024-02-22T08:03:47.161Z,88.30
2024-02-22T08:06:15.226Z,82.20
2024-02-22T08:08:43.067Z,85.25
2024-02-22T08:11:12.222Z,82.07
2024-02-22T08:13:41.448Z,86.20
2024-02-22T08:16:10.851Z,80.93
2024-02-22T08:18:39.632Z,85.97
2024-02-22T08:21:09.022Z,85.80
2024-02-22T08:23:37.004Z,87.30
2024-02-22T08:26:04.962Z,81.18
2024-02-22T08:28:33.767Z,88.03
2024-02-22T08:31:02.779Z,83.80
2024-02-22T08:33:31.114Z,85.70
2024-02-22T08:35:59.094Z,79.18
2024-02-22T08:38:27.833Z,85.03
2024-02-22T08:40:55.749Z,87.57
2024-02-22T08:43:23.415Z,79.32
2024-02-22T08:45:51.524Z,90.65
2024-02-22T08:48:20.610Z,84.60
2024-02-22T08:50:48.548Z,88.60
2024-02-22T08:53:16.231Z,87.90
2024-02-22T08:55:44.256Z,81.20
2024-02-22T08:58:12.173Z,91.70
2024-02-22T09:00:39.776Z,86.22
2024-02-22T09:03:07.911Z,93.93
2024-02-22T09:05:37.653Z,84.43
2024-02-22T09:08:05.988Z,90.43
2024-02-22T09:10:33.771Z,89.43
2024-02-22T09:13:01.480Z,89.35
2024-02-22T09:15:29.407Z,93.82
2024-02-22T09:17:57.168Z,92.07
2024-02-22T09:20:25.150Z,83.68
2024-02-22T09:22:54.561Z,89.60
2024-02-22T09:25:22.207Z,83.10
2024-02-22T09:27:49.881Z,86.72
2024-02-22T09:30:17.728Z,96.00
2024-02-22T09:32:45.486Z,87.70
2024-02-22T09:35:13.833Z,83.70
2024-02-22T09:37:43.432Z,87.28
2024-02-22T09:40:14.573Z,86.97
2024-02-22T09:42:42.608Z,81.30
2024-02-22T09:45:11.520Z,85.28
2024-02-22T09:47:39.814Z,93.40
2024-02-22T09:50:11.319Z,85.95
2024-02-22T09:52:39.732Z,82.65
2024-02-22T09:55:08.872Z,83.90
2024-02-22T09:57:37.802Z,81.30
2024-02-22T10:00:07.706Z,90.63
2024-02-22T10:02:46.306Z,85.68
2024-02-22T10:05:14.808Z,84.28
2024-02-22T10:07:44.182Z,90.85
2024-02-22T10:10:12.448Z,90.38
2024-02-22T10:12:46.231Z,85.25
2024-02-22T10:15:26.904Z,79.78
2024-02-22T10:17:54.868Z,96.72
2024-02-22T10:20:31.749Z,88.68
2024-02-22T10:23:22.625Z,82.75
2024-02-22T10:25:50.385Z,84.97
2024-02-22T10:28:21.332Z,88.50
2024-02-22T10:30:48.991Z,80.60
2024-02-22T10:33:19.816Z,89.22
2024-02-22T10:35:48.022Z,87.68
2024-02-22T10:38:16.959Z,86.80
2024-02-22T10:40:46.437Z,89.10
2024-02-22T10:43:14.359Z,94.00
2024-02-22T10:45:44.784Z,88.53
2024-02-22T10:48:13.342Z,83.13
2024-02-22T10:50:42.966Z,88.60
2024-02-22T10:53:15.192Z,90.80
2024-02-22T10:55:50.764Z,89.43
2024-02-22T10:58:20.628Z,86.10
2024-02-22T11:00:52.447Z,92.35
2024-02-22T11:03:23.027Z,89.75
2024-02-22T11:05:50.640Z,94.22
2024-02-22T11:08:21.900Z,95.75
2024-02-22T11:11:06.328Z,85.68
2024-02-22T11:13:34.678Z,86.13
2024-02-22T11:16:14.326Z,84.50
2024-02-22T11:18:41.965Z,87.00
2024-02-22T11:21:12.975Z,87.80
2024-02-22T11:23:41.491Z,88.55
2024-02-22T11:26:11.101Z,85.63
2024-02-22T11:28:38.821Z,85.15
2024-02-22T11:31:14.093Z,83.65
2024-02-22T11:33:42.886Z,85.30
2024-02-22T11:36:10.851Z,84.40
2024-02-22T11:38:38.482Z,77.22
2024-02-22T11:41:07.352Z,85.82
2024-02-22T11:43:36.420Z,85.72
2024-02-22T11:46:06.275Z,82.55
2024-02-22T11:48:36.045Z,85.88
2024-02-22T11:51:04.511Z,77.80
2024-02-22T11:53:32.301Z,77.88
2024-02-22T11:55:59.947Z,77.25
2024-02-22T11:58:28.709Z,78.60
2024-02-22T12:00:56.760Z,73.75
2024-02-22T12:03:24.899Z,68.60
2024-02-22T12:05:54.371Z,75.65
2024-02-22T12:08:22.694Z,69.40
2024-02-22T12:10:50.918Z,69.28
2024-02-22T12:13:18.631Z,67.72
2024-02-22T12:15:47.519Z,65.60
2024-02-22T12:18:16.197Z,63.33
2024-02-22T12:20:44.999Z,57.47
2024-02-22T12:23:14.012Z,61.47
2024-02-22T12:25:52.581Z,56.90
2024-02-22T12:28:20.981Z,56.17
2024-02-22T12:30:48.711Z,53.95
2024-02-22T12:33:23.587Z,55.97
2024-02-22T12:35:51.293Z,50.45
2024-02-22T12:38:21.166Z,52.00
2024-02-22T12:40:48.890Z,50.92
2024-02-22T12:43:23.027Z,55.60
2024-02-22T12:45:51.509Z,52.88
2024-02-22T12:48:19.704Z,47.65
2024-02-22T12:50:47.630Z,49.80
2024-02-22T12:53:15.562Z,50.47
2024-02-22T12:55:45.461Z,52.92
2024-02-22T12:58:13.334Z,54.15
2024-02-22T13:00:41.003Z,56.75
2024-02-22T13:03:08.631Z,50.53
2024-02-22T13:05:36.619Z,53.88
2024-02-22T13:08:10.781Z,56.85
2024-02-22T13:10:41.272Z,57.80
2024-02-22T13:13:10.683Z,50.63
2024-02-22T13:15:39.461Z,54.05
2024-02-22T13:18:08.200Z,59.75
2024-02-22T13:20:38.008Z,58.75
2024-02-22T13:23:06.343Z,54.15
2024-02-22T13:25:33.994Z,66.03
2024-02-22T13:28:01.932Z,62.08
2024-02-22T13:30:31.752Z,59.60
2024-02-22T13:32:59.575Z,65.43
2024-02-22T13:35:27.306Z,69.13
2024-02-22T13:37:56.869Z,62.28
2024-02-22T13:40:24.605Z,63.20
2024-02-22T13:42:52.570Z,61.42
2024-02-22T13:45:20.387Z,65.18
2024-02-22T13:47:50.113Z,65.68
2024-02-22T13:50:19.300Z,66.55
2024-02-22T13:52:47.731Z,66.45
2024-02-22T13:55:15.674Z,68.70
2024-02-22T13:57:43.867Z,69.57
2024-02-22T14:00:12.563Z,64.43
2024-02-22T14:02:40.568Z,72.13
2024-02-22T14:05:11.451Z,72.20
2024-02-22T14:07:42.935Z,69.28
2024-02-22T14:10:10.824Z,68.28
2024-02-22T14:12:38.434Z,70.05
2024-02-22T14:15:06.691Z,66.80
2024-02-22T14:17:34.645Z,68.38
2024-02-22T14:20:02.345Z,72.82
2024-02-22T14:22:31.280Z,70.82
2024-02-22T14:24:58.880Z,75.35
2024-02-22T14:27:29.567Z,76.32
2024-02-22T14:29:57.397Z,72.45
2024-02-22T14:32:27.806Z,70.13
2024-02-22T14:34:56.151Z,73.00
2024-02-22T14:37:23.804Z,72.53
2024-02-22T14:39:52.795Z,71.85
2024-02-22T14:42:21.424Z,72.13
2024-02-22T14:44:49.082Z,68.65
2024-02-22T14:47:17.128Z,72.40
2024-02-22T14:49:45.833Z,74.60
2024-02-22T14:52:13.865Z,71.32
2024-02-22T14:54:43.152Z,76.93
2024-02-22T14:57:12.463Z,73.88
2024-02-22T14:59:40.058Z,68.03
2024-02-22T15:02:07.892Z,70.05
2024-02-22T15:04:35.782Z,69.22
2024-02-22T15:07:06.754Z,69.47
2024-02-22T15:09:34.534Z,74.05
2024-02-22T15:12:03.976Z,70.90
2024-02-22T15:14:32.967Z,78.53
2024-02-22T15:17:00.607Z,69.18
2024-02-22T15:19:28.486Z,69.10
2024-02-22T15:21:56.153Z,65.20
2024-02-22T15:24:23.731Z,77.10
2024-02-22T15:26:56.677Z,69.43
2024-02-22T15:29:24.485Z,66.47
2024-02-22T15:31:53.740Z,73.60
2024-02-22T15:34:21.662Z,69.20
2024-02-22T15:36:50.174Z,68.40
2024-02-22T15:39:18.030Z,75.93
2024-02-22T15:41:45.624Z,68.68
2024-02-22T15:44:13.505Z,77.10
2024-02-22T15:46:41.167Z,67.53
2024-02-22T15:49:15.440Z,77.93
2024-02-22T15:51:43.959Z,68.00
2024-02-22T15:54:13.856Z,75.30
2024-02-22T15:56:42.041Z,68.68
2024-02-22T15:59:10.086Z,71.60
2024-02-22T16:01:37.873Z,74.13
2024-02-22T16:04:06.745Z,71.13
2024-02-22T16:06:38.158Z,76.28
2024-02-22T16:09:08.711Z,65.63
2024-02-22T16:11:37.524Z,68.32
2024-02-22T16:14:05.545Z,73.32
2024-02-22T16:16:33.508Z,71.85
2024-02-22T16:19:01.366Z,72.18
2024-02-22T16:21:29.337Z,72.40
2024-02-22T16:23:58.310Z,71.53
2024-02-22T16:26:26.280Z,74.97
2024-02-22T16:28:53.919Z,69.35
2024-02-22T16:31:21.853Z,75.65
2024-02-22T16:33:49.597Z,72.93
2024-02-22T16:36:17.742Z,75.85
2024-02-22T16:38:50.542Z,67.68
2024-02-22T16:41:28.041Z,66.10
2024-02-22T16:43:55.932Z,79.53
2024-02-22T16:46:23.991Z,75.28
2024-02-22T16:48:51.910Z,78.03
2024-02-22T16:51:20.051Z,79.43
2024-02-22T16:53:49.593Z,84.55
2024-02-22T16:56:17.742Z,79.35
2024-02-22T16:58:46.777Z,85.90
2024-02-22T17:01:14.900Z,83.90
2024-02-22T17:03:42.628Z,84.30
2024-02-22T17:06:10.585Z,82.35
2024-02-22T17:08:38.420Z,85.15
2024-02-22T17:11:06.404Z,76.57
2024-02-22T17:13:34.055Z,77.07
2024-02-22T17:16:03.117Z,77.55
2024-02-22T17:18:31.042Z,76.63
2024-02-22T17:20:58.653Z,88.90
2024-02-22T17:23:27.951Z,91.18
2024-02-22T17:25:55.758Z,78.07
2024-02-22T17:28:23.597Z,82.22
2024-02-22T17:34:44.930Z,67.45
2024-02-22T17:37:12.868Z,79.60
2024-02-22T17:39:40.703Z,76.78
2024-02-22T17:42:08.716Z,79.10
2024-02-22T17:44:36.328Z,78.57
2024-02-22T17:47:04.405Z,83.68
2024-02-22T17:49:32.451Z,84.22
2024-02-22T17:52:02.134Z,76.85
2024-02-22T17:54:29.859Z,73.25
2024-02-22T17:56:57.892Z,79.68
2024-02-22T17:59:25.573Z,76.90
2024-02-22T18:01:53.299Z,72.00
2024-02-22T18:04:23.419Z,70.63
2024-02-22T18:06:52.837Z,70.68
2024-02-22T18:09:22.522Z,67.95
2024-02-22T18:11:50.902Z,65.88
2024-02-22T18:14:19.024Z,70.90
2024-02-22T18:16:47.072Z,68.47
2024-02-22T18:19:15.073Z,62.47
2024-02-22T18:21:42.756Z,61.50
2024-02-22T18:24:10.758Z,62.38
2024-02-22T18:26:39.774Z,53.40
2024-02-22T18:29:07.413Z,54.15
2024-02-22T18:31:35.323Z,53.33
2024-02-22T18:34:03.025Z,52.35
2024-02-22T18:36:30.723Z,54.00
2024-02-22T18:38:58.670Z,50.85
2024-02-22T18:41:26.455Z,49.40
2024-02-22T18:44:01.737Z,51.50
2024-02-22T18:46:29.371Z,56.50
2024-02-22T18:48:57.183Z,54.33
2024-02-22T18:51:25.730Z,56.13
2024-02-22T18:53:53.364Z,51.35
2024-02-22T18:56:21.088Z,50.80
2024-02-22T18:58:48.967Z,49.88
2024-02-22T19:01:19.098Z,48.15
2024-02-22T19:03:46.763Z,52.22
2024-02-22T19:06:14.766Z,48.78
2024-02-22T19:08:42.405Z,47.95
2024-02-22T19:11:12.128Z,53.90
2024-02-22T19:13:40.551Z,53.00
2024-02-22T19:16:08.292Z,52.40
2024-02-22T19:18:37.320Z,48.90
2024-02-22T19:21:05.961Z,48.13
2024-02-22T19:23:33.633Z,50.88
2024-02-22T19:26:01.261Z,49.92
2024-02-22T19:28:29.300Z,49.63
2024-02-22T19:30:57.197Z,49.85
2024-02-22T19:33:25.209Z,48.95
2024-02-22T19:35:54.880Z,46.78
2024-02-22T19:38:22.706Z,44.38
2024-02-22T19:40:52.077Z,48.80
2024-02-22T19:43:20.562Z,48.15
2024-02-22T19:45:48.332Z,45.90
2024-02-22T19:48:15.994Z,44.15
2024-02-22T19:50:45.730Z,50.53
2024-02-22T19:53:14.963Z,46.42
2024-02-22T19:55:44.146Z,46.35
2024-02-22T19:58:12.866Z,45.92
2024-02-22T20:00:40.511Z,46.92
2024-02-22T20:03:08.542Z,51.03
2024-02-22T20:05:38.185Z,51.42
2024-02-22T20:08:07.043Z,53.78
2024-02-22T20:10:36.024Z,54.28
2024-02-22T20:13:04.128Z,52.17
2024-02-22T20:15:31.805Z,49.67
2024-02-22T20:18:00.919Z,54.38
2024-02-22T20:20:29.686Z,58.00
2024-02-22T20:22:57.498Z,58.13
2024-02-22T20:25:25.293Z,59.47
2024-02-22T20:27:55.506Z,71.68
2024-02-22T20:30:23.111Z,63.80
2024-02-22T20:32:50.743Z,66.35
2024-02-22T20:35:25.290Z,61.80
2024-02-22T20:37:54.240Z,59.67
2024-02-22T20:40:22.593Z,60.65
2024-02-22T20:42:52.199Z,58.45
2024-02-22T20:45:21.711Z,56.30
2024-02-22T20:47:49.799Z,51.08
2024-02-22T20:50:18.534Z,50.00
2024-02-22T20:52:46.351Z,44.42
2024-02-22T20:55:15.558Z,41.28
2024-02-22T20:57:43.420Z,36.38
2024-02-22T21:00:12.316Z,31.98
2024-02-22T21:02:43.859Z,32.55
2024-02-22T21:05:11.787Z,33.00
2024-02-22T21:07:39.989Z,27.63
2024-02-22T21:10:08.838Z,27.60
2024-02-22T21:12:38.409Z,34.13
2024-02-22T21:15:08.644Z,26.02
2024-02-22T21:17:37.339Z,26.50
2024-02-22T21:20:07.639Z,26.25
2024-02-22T21:22:35.431Z,25.88
2024-02-22T21:25:04.055Z,28.55
2024-02-22T21:27:31.663Z,29.27
2024-02-22T21:30:00.006Z,27.88
2024-02-22T21:32:27.997Z,27.27
2024-02-22T21:34:55.705Z,33.17
2024-02-22T21:37:29.549Z,30.48
2024-02-22T21:39:59.727Z,30.05
2024-02-22T21:42:27.388Z,28.00
2024-02-22T21:44:55.308Z,32.00
2024-02-22T21:47:23.079Z,31.55
2024-02-22T21:49:50.750Z,31.17
2024-02-22T21:52:18.710Z,34.05
2024-02-22T21:54:48.867Z,32.28
2024-02-22T21:57:16.591Z,35.15
2024-02-22T21:59:44.559Z,29.77
2024-02-22T22:02:12.274Z,28.48
2024-02-22T22:04:39.889Z,29.00
2024-02-22T22:07:08.027Z,28.92
2024-02-22T22:09:35.643Z,28.15
2024-02-22T22:12:04.937Z,26.92
2024-02-22T22:14:33.270Z,27.75
2024-02-22T22:17:00.957Z,28.48
2024-02-22T22:19:28.629Z,25.85
2024-02-22T22:21:56.586Z,27.92
2024-02-22T22:24:24.200Z,24.70
2024-02-22T22:26:51.814Z,27.13
2024-02-22T22:29:21.157Z,27.02
2024-02-22T22:31:51.774Z,23.50
2024-02-22T22:34:19.450Z,24.40
2024-02-22T22:36:47.389Z,24.13
2024-02-22T22:39:15.095Z,23.33
2024-02-22T22:41:42.746Z,23.35
2024-02-22T22:44:10.760Z,24.98
2024-02-22T22:46:39.685Z,22.83
2024-02-22T22:49:07.313Z,23.95
2024-02-22T22:51:35.516Z,24.10
2024-02-22T22:54:03.730Z,24.70
2024-02-22T22:56:31.935Z,26.67
2024-02-22T22:58:59.755Z,22.40
2024-02-22T23:01:27.427Z,25.25
2024-02-22T23:03:56.540Z,23.23
2024-02-22T23:06:24.663Z,23.70
2024-02-22T23:08:52.354Z,24.23
2024-02-22T23:11:21.416Z,25.60
2024-02-22T23:13:51.307Z,29.37
2024-02-22T23:16:19.037Z,27.27
2024-02-22T23:18:46.686Z,29.50
2024-02-22T23:21:18.683Z,29.13
2024-02-22T23:23:46.300Z,32.17
2024-02-22T23:26:13.955Z,26.33
2024-02-22T23:28:41.964Z,29.20
2024-02-22T23:31:09.594Z,30.00
2024-02-22T23:33:37.316Z,30.53
2024-02-22T23:36:06.727Z,28.70
2024-02-22T23:38:35.745Z,26.70
2024-02-22T23:41:16.761Z,30.30
2024-02-22T23:43:51.267Z,27.27
2024-02-22T23:46:19.611Z,28.67
2024-02-22T23:48:47.246Z,30.17
2024-02-22T23:51:15.205Z,28.50
2024-02-22T23:53:44.485Z,30.30
2024-02-22T23:56:13.065Z,29.37
2024-02-22T23:58:41.105Z,29.43
